8°C Temp
5°C Dewpoint
82% Humidity
Temperature
34 KM/H
21 MPH
18 KTS
90°
Due East

Wind Speed
Mostly Scattered
Clouds
Pressure 1013.92 (hPa) - 29.94 (in)
Visibility 6.2 (mi) - 10.0 (km)

Current Conditions
EKCH
Location 55(km)
Metar :EKCH 150920Z AUTO 09018KT 9999 SCT022/// 08/05 Q1014 TEMPO 09020G30KT
Fri 15th November 10:20 am

Airport
  Metar Aviation API Data Provided by https://www.checkwx.com/ PHP scripts by weather34.com ©2019